sensor_id;sensor_type;location;lat;lon;timestamp;pressure;altitude;pressure_sealevel;temperature;humidity
17311;BME280;8773;43.300;0.394;2023-01-16T00:00:54;99292.16;;;7.62;43.53
17311;BME280;8773;43.300;0.394;2023-01-16T00:03:23;99276.28;;;7.78;42.47
17311;BME280;8773;43.300;0.394;2023-01-16T00:05:51;99263.69;;;7.88;42.37
17311;BME280;8773;43.300;0.394;2023-01-16T00:08:19;99260.34;;;7.86;42.35
17311;BME280;8773;43.300;0.394;2023-01-16T00:10:47;99251.28;;;7.71;42.66
17311;BME280;8773;43.300;0.394;2023-01-16T00:13:15;99243.38;;;7.87;42.08
17311;BME280;8773;43.300;0.394;2023-01-16T00:15:45;99215.19;;;7.77;41.38
17311;BME280;8773;43.300;0.394;2023-01-16T00:18:14;99203.84;;;7.67;41.61
17311;BME280;8773;43.300;0.394;2023-01-16T00:20:43;99184.06;;;7.77;41.14
17311;BME280;8773;43.300;0.394;2023-01-16T00:23:11;99166.19;;;7.96;41.91
17311;BME280;8773;43.300;0.394;2023-01-16T00:25:40;99162.91;;;8.10;40.97
17311;BME280;8773;43.300;0.394;2023-01-16T00:28:08;99162.59;;;8.13;40.89
17311;BME280;8773;43.300;0.394;2023-01-16T00:30:37;99137.22;;;7.93;40.22
17311;BME280;8773;43.300;0.394;2023-01-16T00:33:07;99114.00;;;7.69;39.14
17311;BME280;8773;43.300;0.394;2023-01-16T00:35:35;99120.41;;;7.92;40.67
17311;BME280;8773;43.300;0.394;2023-01-16T00:38:03;99086.25;;;7.87;38.58
17311;BME280;8773;43.300;0.394;2023-01-16T00:40:31;99085.94;;;7.90;39.27
17311;BME280;8773;43.300;0.394;2023-01-16T00:43:00;99067.00;;;8.02;39.82
17311;BME280;8773;43.300;0.394;2023-01-16T00:45:28;99059.63;;;7.87;38.70
17311;BME280;8773;43.300;0.394;2023-01-16T00:47:56;99045.31;;;7.88;38.64
17311;BME280;8773;43.300;0.394;2023-01-16T00:50:26;99036.00;;;7.93;39.14
17311;BME280;8773;43.300;0.394;2023-01-16T00:52:54;99020.69;;;7.86;39.31
17311;BME280;8773;43.300;0.394;2023-01-16T00:55:22;99018.69;;;7.88;38.80
17311;BME280;8773;43.300;0.394;2023-01-16T00:57:50;99003.38;;;7.82;39.19
17311;BME280;8773;43.300;0.394;2023-01-16T01:00:19;98988.22;;;7.83;40.03
17311;BME280;8773;43.300;0.394;2023-01-16T01:02:48;98981.06;;;7.83;39.57
17311;BME280;8773;43.300;0.394;2023-01-16T01:05:20;98970.75;;;7.88;39.64
17311;BME280;8773;43.300;0.394;2023-01-16T01:07:49;98958.78;;;7.84;39.93
17311;BME280;8773;43.300;0.394;2023-01-16T01:10:17;98939.47;;;7.99;39.61
17311;BME280;8773;43.300;0.394;2023-01-16T01:12:45;98934.50;;;8.04;39.65
17311;BME280;8773;43.300;0.394;2023-01-16T01:15:13;98931.47;;;8.23;39.90
17311;BME280;8773;43.300;0.394;2023-01-16T01:17:42;98935.78;;;8.32;39.24
17311;BME280;8773;43.300;0.394;2023-01-16T01:20:10;98929.13;;;8.44;40.17
17311;BME280;8773;43.300;0.394;2023-01-16T01:22:38;98924.97;;;8.34;39.04
17311;BME280;8773;43.300;0.394;2023-01-16T01:25:08;98940.94;;;8.34;39.68
17311;BME280;8773;43.300;0.394;2023-01-16T01:27:37;98942.28;;;8.46;39.25
17311;BME280;8773;43.300;0.394;2023-01-16T01:30:09;98942.13;;;8.39;38.89
17311;BME280;8773;43.300;0.394;2023-01-16T01:32:37;98943.03;;;8.63;40.16
17311;BME280;8773;43.300;0.394;2023-01-16T01:35:06;98945.44;;;8.33;40.55
17311;BME280;8773;43.300;0.394;2023-01-16T01:37:35;98939.78;;;8.44;41.28
17311;BME280;8773;43.300;0.394;2023-01-16T01:40:04;98933.97;;;8.24;42.18
17311;BME280;8773;43.300;0.394;2023-01-16T01:42:37;98915.69;;;8.13;44.22
17311;BME280;8773;43.300;0.394;2023-01-16T01:45:18;98899.53;;;8.15;46.40
17311;BME280;8773;43.300;0.394;2023-01-16T01:47:50;98892.50;;;8.22;48.32
17311;BME280;8773;43.300;0.394;2023-01-16T01:50:35;98869.91;;;8.02;49.56
17311;BME280;8773;43.300;0.394;2023-01-16T01:53:08;98867.06;;;8.03;49.47
17311;BME280;8773;43.300;0.394;2023-01-16T01:55:39;98847.59;;;8.11;49.91
17311;BME280;8773;43.300;0.394;2023-01-16T01:58:10;98835.94;;;8.12;50.54
17311;BME280;8773;43.300;0.394;2023-01-16T02:00:46;98831.47;;;7.96;50.98
17311;BME280;8773;43.300;0.394;2023-01-16T02:03:19;98834.44;;;8.01;50.27
17311;BME280;8773;43.300;0.394;2023-01-16T02:05:54;98820.63;;;8.06;50.70
17311;BME280;8773;43.300;0.394;2023-01-16T02:08:28;98811.13;;;8.11;50.94
17311;BME280;8773;43.300;0.394;2023-01-16T02:11:02;98801.97;;;8.06;51.44
17311;BME280;8773;43.300;0.394;2023-01-16T02:13:32;98783.06;;;8.32;51.22
17311;BME280;8773;43.300;0.394;2023-01-16T02:16:00;98766.25;;;8.31;50.89
17311;BME280;8773;43.300;0.394;2023-01-16T02:18:46;98751.75;;;8.34;51.27
17311;BME280;8773;43.300;0.394;2023-01-16T02:22:02;98742.13;;;8.24;51.52
17311;BME280;8773;43.300;0.394;2023-01-16T02:24:49;98747.00;;;8.52;51.05
17311;BME280;8773;43.300;0.394;2023-01-16T02:27:49;98725.03;;;8.81;50.56
17311;BME280;8773;43.300;0.394;2023-01-16T02:30:33;98730.59;;;8.63;50.50
17311;BME280;8773;43.300;0.394;2023-01-16T02:33:11;98715.69;;;8.54;50.28
17311;BME280;8773;43.300;0.394;2023-01-16T02:35:58;98709.81;;;8.59;51.30
17311;BME280;8773;43.300;0.394;2023-01-16T02:38:36;98705.50;;;8.58;50.57
17311;BME280;8773;43.300;0.394;2023-01-16T02:41:15;98701.59;;;8.68;50.54
17311;BME280;8773;43.300;0.394;2023-01-16T02:43:52;98679.41;;;8.76;50.01
17311;BME280;8773;43.300;0.394;2023-01-16T02:46:27;98666.59;;;8.94;49.57
17311;BME280;8773;43.300;0.394;2023-01-16T02:49:06;98656.09;;;8.70;49.74
17311;BME280;8773;43.300;0.394;2023-01-16T02:51:44;98631.22;;;8.54;50.02
17311;BME280;8773;43.300;0.394;2023-01-16T02:54:22;98631.78;;;8.65;49.08
17311;BME280;8773;43.300;0.394;2023-01-16T02:56:57;98603.38;;;8.57;48.63
17311;BME280;8773;43.300;0.394;2023-01-16T02:59:28;98616.97;;;8.62;48.27
17311;BME280;8773;43.300;0.394;2023-01-16T03:01:57;98611.81;;;8.61;48.03
17311;BME280;8773;43.300;0.394;2023-01-16T03:04:41;98604.28;;;8.64;47.04
17311;BME280;8773;43.300;0.394;2023-01-16T03:07:27;98591.28;;;8.69;46.92
17311;BME280;8773;43.300;0.394;2023-01-16T03:10:11;98596.03;;;8.82;47.76
17311;BME280;8773;43.300;0.394;2023-01-16T03:12:49;98587.25;;;8.73;46.95
17311;BME280;8773;43.300;0.394;2023-01-16T03:15:26;98579.38;;;8.80;47.81
17311;BME280;8773;43.300;0.394;2023-01-16T03:18:06;98596.03;;;8.82;46.66
17311;BME280;8773;43.300;0.394;2023-01-16T03:20:49;98595.66;;;8.85;47.70
17311;BME280;8773;43.300;0.394;2023-01-16T03:23:29;98587.47;;;8.64;48.55
17311;BME280;8773;43.300;0.394;2023-01-16T03:26:02;98600.53;;;8.81;47.75
17311;BME280;8773;43.300;0.394;2023-01-16T03:28:35;98586.41;;;8.96;47.97
17311;BME280;8773;43.300;0.394;2023-01-16T03:31:11;98587.63;;;8.70;48.28
17311;BME280;8773;43.300;0.394;2023-01-16T03:33:44;98586.09;;;8.53;49.54
17311;BME280;8773;43.300;0.394;2023-01-16T03:36:24;98587.47;;;8.64;48.54
17311;BME280;8773;43.300;0.394;2023-01-16T03:38:56;98574.47;;;8.46;48.94
17311;BME280;8773;43.300;0.394;2023-01-16T03:41:28;98582.22;;;8.55;49.58
17311;BME280;8773;43.300;0.394;2023-01-16T03:44:01;98586.13;;;8.45;50.35
17311;BME280;8773;43.300;0.394;2023-01-16T03:46:33;98601.00;;;8.39;49.86
17311;BME280;8773;43.300;0.394;2023-01-16T03:49:07;98624.94;;;8.47;50.89
17311;BME280;8773;43.300;0.394;2023-01-16T03:51:43;98623.63;;;8.43;51.97
17311;BME280;8773;43.300;0.394;2023-01-16T03:54:23;98629.44;;;8.47;53.45
17311;BME280;8773;43.300;0.394;2023-01-16T03:56:56;98640.84;;;8.33;54.43
17311;BME280;8773;43.300;0.394;2023-01-16T03:59:27;98634.50;;;8.11;56.70
17311;BME280;8773;43.300;0.394;2023-01-16T04:01:57;98639.53;;;7.98;58.32
17311;BME280;8773;43.300;0.394;2023-01-16T04:04:30;98636.91;;;7.89;60.24
17311;BME280;8773;43.300;0.394;2023-01-16T04:07:05;98633.53;;;7.65;60.60
17311;BME280;8773;43.300;0.394;2023-01-16T04:09:38;98628.38;;;7.63;61.33
17311;BME280;8773;43.300;0.394;2023-01-16T04:12:09;98639.25;;;7.37;62.02
17311;BME280;8773;43.300;0.394;2023-01-16T04:14:42;98629.78;;;7.35;62.12
17311;BME280;8773;43.300;0.394;2023-01-16T04:17:10;98634.50;;;7.16;62.75
17311;BME280;8773;43.300;0.394;2023-01-16T04:19:39;98635.44;;;7.32;62.52
17311;BME280;8773;43.300;0.394;2023-01-16T04:22:18;98627.47;;;7.07;63.54
17311;BME280;8773;43.300;0.394;2023-01-16T04:24:47;98661.44;;;7.13;63.73
17311;BME280;8773;43.300;0.394;2023-01-16T04:27:18;98660.06;;;6.93;64.45
17311;BME280;8773;43.300;0.394;2023-01-16T04:29:47;98663.56;;;7.02;64.64
17311;BME280;8773;43.300;0.394;2023-01-16T04:32:15;98649.59;;;7.00;65.46
17311;BME280;8773;43.300;0.394;2023-01-16T04:34:43;98652.28;;;6.83;66.69
17311;BME280;8773;43.300;0.394;2023-01-16T04:37:15;98642.31;;;6.69;67.34
17311;BME280;8773;43.300;0.394;2023-01-16T04:39:43;98633.16;;;6.72;66.61
17311;BME280;8773;43.300;0.394;2023-01-16T04:42:14;98634.00;;;6.64;67.49
17311;BME280;8773;43.300;0.394;2023-01-16T04:44:42;98629.50;;;6.65;67.09
17311;BME280;8773;43.300;0.394;2023-01-16T04:47:10;98634.66;;;6.74;67.66
17311;BME280;8773;43.300;0.394;2023-01-16T04:49:38;98639.47;;;6.71;67.09
17311;BME280;8773;43.300;0.394;2023-01-16T04:52:06;98652.75;;;6.71;66.97
17311;BME280;8773;43.300;0.394;2023-01-16T04:54:36;98653.94;;;6.68;67.76
17311;BME280;8773;43.300;0.394;2023-01-16T04:57:04;98661.22;;;6.66;68.02
17311;BME280;8773;43.300;0.394;2023-01-16T04:59:33;98655.75;;;6.68;67.09
17311;BME280;8773;43.300;0.394;2023-01-16T05:02:01;98630.50;;;6.55;67.46
17311;BME280;8773;43.300;0.394;2023-01-16T05:04:31;98623.19;;;6.49;68.60
17311;BME280;8773;43.300;0.394;2023-01-16T05:06:59;98625.19;;;6.55;68.35
17311;BME280;8773;43.300;0.394;2023-01-16T05:09:27;98599.94;;;6.60;68.13
17311;BME280;8773;43.300;0.394;2023-01-16T05:11:57;98587.66;;;6.58;68.16
17311;BME280;8773;43.300;0.394;2023-01-16T05:14:25;98591.81;;;6.61;67.15
17311;BME280;8773;43.300;0.394;2023-01-16T05:16:53;98606.94;;;6.77;66.57
17311;BME280;8773;43.300;0.394;2023-01-16T05:19:21;98599.13;;;6.67;66.52
17311;BME280;8773;43.300;0.394;2023-01-16T05:21:49;98605.44;;;6.74;67.06
17311;BME280;8773;43.300;0.394;2023-01-16T05:24:17;98609.25;;;6.72;66.64
17311;BME280;8773;43.300;0.394;2023-01-16T05:26:45;98615.22;;;6.66;67.58
17311;BME280;8773;43.300;0.394;2023-01-16T05:29:15;98613.41;;;6.42;68.25
17311;BME280;8773;43.300;0.394;2023-01-16T05:31:45;98604.91;;;6.46;68.85
17311;BME280;8773;43.300;0.394;2023-01-16T05:34:13;98595.94;;;6.31;69.53
17311;BME280;8773;43.300;0.394;2023-01-16T05:36:41;98601.28;;;6.39;68.65
17311;BME280;8773;43.300;0.394;2023-01-16T05:39:10;98590.28;;;6.26;69.25
17311;BME280;8773;43.300;0.394;2023-01-16T05:41:38;98616.06;;;6.42;69.49
17311;BME280;8773;43.300;0.394;2023-01-16T05:44:06;98612.91;;;6.38;69.64
17311;BME280;8773;43.300;0.394;2023-01-16T05:46:35;98618.84;;;6.32;69.30
17311;BME280;8773;43.300;0.394;2023-01-16T05:49:04;98614.19;;;6.18;69.54
17311;BME280;8773;43.300;0.394;2023-01-16T05:51:32;98614.47;;;6.07;71.53
17311;BME280;8773;43.300;0.394;2023-01-16T05:54:00;98617.28;;;6.05;71.20
17311;BME280;8773;43.300;0.394;2023-01-16T05:56:28;98619.31;;;6.19;69.95
17311;BME280;8773;43.300;0.394;2023-01-16T05:58:56;98622.50;;;6.31;69.80
17311;BME280;8773;43.300;0.394;2023-01-16T06:01:24;98620.94;;;6.04;71.17
17311;BME280;8773;43.300;0.394;2023-01-16T06:03:54;98640.00;;;5.92;71.31
17311;BME280;8773;43.300;0.394;2023-01-16T06:06:22;98643.72;;;6.15;70.72
17311;BME280;8773;43.300;0.394;2023-01-16T06:08:50;98652.34;;;6.17;71.01
17311;BME280;8773;43.300;0.394;2023-01-16T06:11:21;98645.06;;;6.19;69.88
17311;BME280;8773;43.300;0.394;2023-01-16T06:13:49;98640.44;;;6.29;70.27
17311;BME280;8773;43.300;0.394;2023-01-16T06:16:17;98631.63;;;6.20;69.69
17311;BME280;8773;43.300;0.394;2023-01-16T06:18:45;98639.75;;;6.19;70.81
17311;BME280;8773;43.300;0.394;2023-01-16T06:21:15;98640.72;;;6.10;71.61
17311;BME280;8773;43.300;0.394;2023-01-16T06:23:43;98654.00;;;6.18;71.35
17311;BME280;8773;43.300;0.394;2023-01-16T06:26:11;98652.16;;;6.10;70.71
17311;BME280;8773;43.300;0.394;2023-01-16T06:28:40;98653.38;;;6.24;70.10
17311;BME280;8773;43.300;0.394;2023-01-16T06:31:08;98632.81;;;6.34;70.21
17311;BME280;8773;43.300;0.394;2023-01-16T06:33:36;98632.31;;;6.39;70.24
17311;BME280;8773;43.300;0.394;2023-01-16T06:36:05;98623.47;;;6.22;70.47
17311;BME280;8773;43.300;0.394;2023-01-16T06:38:34;98625.84;;;6.33;70.41
17311;BME280;8773;43.300;0.394;2023-01-16T06:41:03;98627.34;;;6.36;71.42
17311;BME280;8773;43.300;0.394;2023-01-16T06:43:33;98616.53;;;6.37;70.44
17311;BME280;8773;43.300;0.394;2023-01-16T06:46:05;98616.38;;;6.31;69.45
17311;BME280;8773;43.300;0.394;2023-01-16T06:48:36;98604.06;;;6.21;69.56
17311;BME280;8773;43.300;0.394;2023-01-16T06:51:04;98616.84;;;6.26;70.33
17311;BME280;8773;43.300;0.394;2023-01-16T06:53:32;98626.16;;;6.30;69.63
17311;BME280;8773;43.300;0.394;2023-01-16T06:56:02;98615.69;;;6.45;69.19
17311;BME280;8773;43.300;0.394;2023-01-16T06:58:32;98624.69;;;6.52;69.25
17311;BME280;8773;43.300;0.394;2023-01-16T07:01:03;98612.38;;;6.51;69.72
17311;BME280;8773;43.300;0.394;2023-01-16T07:03:31;98613.72;;;6.39;69.70
17311;BME280;8773;43.300;0.394;2023-01-16T07:05:59;98613.22;;;6.43;69.67
17311;BME280;8773;43.300;0.394;2023-01-16T07:08:28;98589.00;;;6.38;69.86
17311;BME280;8773;43.300;0.394;2023-01-16T07:10:58;98592.91;;;6.02;69.00
17311;BME280;8773;43.300;0.394;2023-01-16T07:13:27;98595.75;;;6.16;69.90
17311;BME280;8773;43.300;0.394;2023-01-16T07:15:55;98604.09;;;6.30;69.11
17311;BME280;8773;43.300;0.394;2023-01-16T07:18:41;98622.84;;;6.28;70.69
17311;BME280;8773;43.300;0.394;2023-01-16T07:21:28;98606.22;;;6.26;69.73
17311;BME280;8773;43.300;0.394;2023-01-16T07:24:19;98629.25;;;6.09;69.50
17311;BME280;8773;43.300;0.394;2023-01-16T07:26:51;98632.38;;;6.05;70.23
17311;BME280;8773;43.300;0.394;2023-01-16T07:29:21;98630.97;;;6.27;70.75
17311;BME280;8773;43.300;0.394;2023-01-16T07:31:49;98625.09;;;6.07;70.74
17311;BME280;8773;43.300;0.394;2023-01-16T07:34:17;98624.28;;;6.06;69.67
17311;BME280;8773;43.300;0.394;2023-01-16T07:36:46;98635.72;;;6.07;70.85
17311;BME280;8773;43.300;0.394;2023-01-16T07:39:14;98637.25;;;6.17;70.21
17311;BME280;8773;43.300;0.394;2023-01-16T07:41:42;98622.44;;;6.07;70.09
17311;BME280;8773;43.300;0.394;2023-01-16T07:44:24;98625.75;;;6.01;70.10
17311;BME280;8773;43.300;0.394;2023-01-16T07:46:53;98640.53;;;6.11;70.05
17311;BME280;8773;43.300;0.394;2023-01-16T07:49:21;98634.22;;;6.04;70.90
17311;BME280;8773;43.300;0.394;2023-01-16T07:51:49;98634.38;;;5.95;70.22
17311;BME280;8773;43.300;0.394;2023-01-16T07:54:17;98635.81;;;5.81;69.83
17311;BME280;8773;43.300;0.394;2023-01-16T07:56:48;98639.00;;;5.93;70.53
17311;BME280;8773;43.300;0.394;2023-01-16T07:59:16;98643.69;;;6.07;70.49
17311;BME280;8773;43.300;0.394;2023-01-16T08:01:45;98626.94;;;5.98;70.22
17311;BME280;8773;43.300;0.394;2023-01-16T08:04:13;98631.75;;;6.11;69.90
17311;BME280;8773;43.300;0.394;2023-01-16T08:06:42;98640.06;;;6.16;69.00
17311;BME280;8773;43.300;0.394;2023-01-16T08:09:11;98637.06;;;6.11;69.01
17311;BME280;8773;43.300;0.394;2023-01-16T08:11:39;98627.81;;;6.31;69.62
17311;BME280;8773;43.300;0.394;2023-01-16T08:14:13;98595.25;;;6.21;69.09
17311;BME280;8773;43.300;0.394;2023-01-16T08:16:42;98614.13;;;5.94;68.57
17311;BME280;8773;43.300;0.394;2023-01-16T08:19:11;98647.63;;;5.86;71.30
17311;BME280;8773;43.300;0.394;2023-01-16T08:21:39;98652.56;;;5.81;72.25
17311;BME280;8773;43.300;0.394;2023-01-16T08:24:07;98643.00;;;6.05;70.63
17311;BME280;8773;43.300;0.394;2023-01-16T08:26:36;98650.31;;;6.03;70.96
17311;BME280;8773;43.300;0.394;2023-01-16T08:29:04;98641.25;;;6.21;70.70
17311;BME280;8773;43.300;0.394;2023-01-16T08:31:32;98649.31;;;5.96;70.34
17311;BME280;8773;43.300;0.394;2023-01-16T08:34:01;98644.00;;;5.96;71.05
17311;BME280;8773;43.300;0.394;2023-01-16T08:36:30;98641.34;;;6.04;71.21
17311;BME280;8773;43.300;0.394;2023-01-16T08:38:58;98637.06;;;6.11;70.43
17311;BME280;8773;43.300;0.394;2023-01-16T08:41:26;98642.94;;;6.31;69.82
17311;BME280;8773;43.300;0.394;2023-01-16T08:44:12;98656.88;;;6.33;69.28
17311;BME280;8773;43.300;0.394;2023-01-16T08:47:00;98659.53;;;6.49;69.80
17311;BME280;8773;43.300;0.394;2023-01-16T08:49:47;98664.66;;;6.26;69.81
17311;BME280;8773;43.300;0.394;2023-01-16T08:52:35;98657.31;;;6.12;69.20
17311;BME280;8773;43.300;0.394;2023-01-16T08:55:04;98671.16;;;6.32;70.19
17311;BME280;8773;43.300;0.394;2023-01-16T08:57:33;98678.78;;;6.27;69.67
17311;BME280;8773;43.300;0.394;2023-01-16T09:00:03;98678.94;;;6.33;68.92
17311;BME280;8773;43.300;0.394;2023-01-16T09:02:32;98679.22;;;6.14;70.24
17311;BME280;8773;43.300;0.394;2023-01-16T09:05:04;98693.44;;;5.97;71.27
17311;BME280;8773;43.300;0.394;2023-01-16T09:07:32;98695.75;;;5.92;71.13
17311;BME280;8773;43.300;0.394;2023-01-16T09:10:01;98699.13;;;6.10;71.66
17311;BME280;8773;43.300;0.394;2023-01-16T09:12:29;98674.88;;;5.97;71.18
17311;BME280;8773;43.300;0.394;2023-01-16T09:15:15;98682.16;;;5.95;71.17
17311;BME280;8773;43.300;0.394;2023-01-16T09:17:43;98691.19;;;6.18;70.88
17311;BME280;8773;43.300;0.394;2023-01-16T09:20:11;98672.97;;;6.31;70.34
17311;BME280;8773;43.300;0.394;2023-01-16T09:22:39;98670.13;;;6.24;70.05
17311;BME280;8773;43.300;0.394;2023-01-16T09:25:09;98680.66;;;6.42;70.81
17311;BME280;8773;43.300;0.394;2023-01-16T09:27:37;98688.09;;;6.47;70.07
17311;BME280;8773;43.300;0.394;2023-01-16T09:30:09;98678.31;;;6.55;69.74
17311;BME280;8773;43.300;0.394;2023-01-16T09:32:37;98676.00;;;6.61;69.89
17311;BME280;8773;43.300;0.394;2023-01-16T09:35:06;98681.50;;;6.67;68.87
17311;BME280;8773;43.300;0.394;2023-01-16T09:37:34;98686.31;;;6.88;68.81
17311;BME280;8773;43.300;0.394;2023-01-16T09:40:03;98669.22;;;6.82;68.00
17311;BME280;8773;43.300;0.394;2023-01-16T09:42:48;98673.69;;;6.74;68.25
17311;BME280;8773;43.300;0.394;2023-01-16T09:45:37;98656.22;;;6.39;68.77
17311;BME280;8773;43.300;0.394;2023-01-16T09:48:12;98656.72;;;6.42;69.49
17311;BME280;8773;43.300;0.394;2023-01-16T09:50:46;98657.38;;;6.44;69.42
17311;BME280;8773;43.300;0.394;2023-01-16T09:53:22;98668.03;;;6.69;69.21
17311;BME280;8773;43.300;0.394;2023-01-16T09:56:14;98662.06;;;6.58;69.51
17311;BME280;8773;43.300;0.394;2023-01-16T09:59:12;98689.81;;;6.72;68.44
17311;BME280;8773;43.300;0.394;2023-01-16T10:01:54;98682.66;;;6.65;68.49
17311;BME280;8773;43.300;0.394;2023-01-16T10:04:24;98678.69;;;6.69;69.15
17311;BME280;8773;43.300;0.394;2023-01-16T10:07:11;98678.47;;;6.54;69.05
17311;BME280;8773;43.300;0.394;2023-01-16T10:09:52;98678.94;;;6.33;69.74
17311;BME280;8773;43.300;0.394;2023-01-16T10:12:27;98695.56;;;6.43;69.66
17311;BME280;8773;43.300;0.394;2023-01-16T10:15:09;98691.59;;;6.47;69.67
17311;BME280;8773;43.300;0.394;2023-01-16T10:17:48;98686.94;;;6.33;69.83
17311;BME280;8773;43.300;0.394;2023-01-16T10:20:36;98701.22;;;6.40;70.97
17311;BME280;8773;43.300;0.394;2023-01-16T10:23:19;98691.44;;;6.57;70.42
17311;BME280;8773;43.300;0.394;2023-01-16T10:25:54;98676.66;;;6.54;69.72
17311;BME280;8773;43.300;0.394;2023-01-16T10:28:37;98687.63;;;6.60;69.38
17311;BME280;8773;43.300;0.394;2023-01-16T10:31:12;98682.28;;;6.51;69.30
17311;BME280;8773;43.300;0.394;2023-01-16T10:33:49;98704.25;;;6.62;68.82
17311;BME280;8773;43.300;0.394;2023-01-16T10:36:27;98716.03;;;6.67;69.34
17311;BME280;8773;43.300;0.394;2023-01-16T10:38:59;98710.56;;;6.93;68.34
17311;BME280;8773;43.300;0.394;2023-01-16T10:41:29;98731.69;;;6.78;68.46
17311;BME280;8773;43.300;0.394;2023-01-16T10:44:29;98739.66;;;6.78;68.66
17311;BME280;8773;43.300;0.394;2023-01-16T10:47:21;98717.22;;;6.73;69.16
17311;BME280;8773;43.300;0.394;2023-01-16T10:50:08;98719.19;;;6.63;69.08
17311;BME280;8773;43.300;0.394;2023-01-16T10:52:37;98719.03;;;6.72;68.89
17311;BME280;8773;43.300;0.394;2023-01-16T10:55:07;98712.72;;;6.65;69.48
17311;BME280;8773;43.300;0.394;2023-01-16T10:57:41;98710.22;;;6.64;69.44
17311;BME280;8773;43.300;0.394;2023-01-16T11:00:16;98704.88;;;6.55;69.03
17311;BME280;8773;43.300;0.394;2023-01-16T11:02:47;98696.91;;;6.47;70.46
17311;BME280;8773;43.300;0.394;2023-01-16T11:05:26;98706.53;;;6.40;70.70
17311;BME280;8773;43.300;0.394;2023-01-16T11:07:56;98705.53;;;6.49;71.44
17311;BME280;8773;43.300;0.394;2023-01-16T11:10:29;98698.94;;;6.62;70.82
17311;BME280;8773;43.300;0.394;2023-01-16T11:12:57;98695.06;;;6.40;70.58
17311;BME280;8773;43.300;0.394;2023-01-16T11:16:00;98692.91;;;6.35;70.18
17311;BME280;8773;43.300;0.394;2023-01-16T11:18:50;98698.97;;;6.11;70.54
17311;BME280;8773;43.300;0.394;2023-01-16T11:21:24;98709.63;;;6.19;70.16
17311;BME280;8773;43.300;0.394;2023-01-16T11:23:57;98717.63;;;6.28;70.74
17311;BME280;8773;43.300;0.394;2023-01-16T11:26:26;98712.16;;;6.37;71.19
17311;BME280;8773;43.300;0.394;2023-01-16T11:28:55;98702.53;;;6.44;71.00
17311;BME280;8773;43.300;0.394;2023-01-16T11:31:26;98690.94;;;6.62;70.41
17311;BME280;8773;43.300;0.394;2023-01-16T11:34:01;98678.16;;;6.65;71.04
17311;BME280;8773;43.300;0.394;2023-01-16T11:36:33;98658.59;;;6.74;70.19
17311;BME280;8773;43.300;0.394;2023-01-16T11:39:04;98652.25;;;6.67;69.53
17311;BME280;8773;43.300;0.394;2023-01-16T11:41:35;98638.31;;;6.65;69.71
17311;BME280;8773;43.300;0.394;2023-01-16T11:44:12;98636.16;;;6.85;69.75
17311;BME280;8773;43.300;0.394;2023-01-16T11:46:59;98628.53;;;6.74;70.11
17311;BME280;8773;43.300;0.394;2023-01-16T11:49:33;98626.19;;;6.79;69.70
17311;BME280;8773;43.300;0.394;2023-01-16T11:52:04;98605.59;;;6.73;69.38
17311;BME280;8773;43.300;0.394;2023-01-16T11:54:33;98605.59;;;6.73;68.97
17311;BME280;8773;43.300;0.394;2023-01-16T11:57:13;98598.78;;;6.62;69.08
17311;BME280;8773;43.300;0.394;2023-01-16T12:02:49;98590.47;;;6.57;69.30
17311;BME280;8773;43.300;0.394;2023-01-16T12:05:26;98586.97;;;6.48;69.62
17311;BME280;8773;43.300;0.394;2023-01-16T12:08:28;98579.69;;;6.58;69.79
17311;BME280;8773;43.300;0.394;2023-01-16T12:11:04;98579.19;;;6.63;70.12
17311;BME280;8773;43.300;0.394;2023-01-16T12:13:40;98569.72;;;6.61;69.06
17311;BME280;8773;43.300;0.394;2023-01-16T12:16:40;98562.25;;;6.48;68.93
17311;BME280;8773;43.300;0.394;2023-01-16T12:19:41;98571.72;;;6.58;70.28
17311;BME280;8773;43.300;0.394;2023-01-16T12:22:19;98566.22;;;6.52;69.85
17311;BME280;8773;43.300;0.394;2023-01-16T12:24:53;98556.44;;;6.69;69.20
17311;BME280;8773;43.300;0.394;2023-01-16T12:27:40;98549.28;;;6.61;69.22
17311;BME280;8773;43.300;0.394;2023-01-16T12:30:23;98540.81;;;6.82;69.35
17311;BME280;8773;43.300;0.394;2023-01-16T12:32:59;98526.53;;;6.75;68.67
17311;BME280;8773;43.300;0.394;2023-01-16T12:35:47;98543.13;;;6.69;69.89
17311;BME280;8773;43.300;0.394;2023-01-16T12:38:25;98544.13;;;6.68;70.22
17311;BME280;8773;43.300;0.394;2023-01-16T12:41:08;98542.47;;;6.58;70.46
17311;BME280;8773;43.300;0.394;2023-01-16T12:47:16;98526.03;;;6.55;70.60
17311;BME280;8773;43.300;0.394;2023-01-16T12:49:57;98519.38;;;6.75;70.24
17311;BME280;8773;43.300;0.394;2023-01-16T12:52:40;98514.72;;;6.85;70.75
17311;BME280;8773;43.300;0.394;2023-01-16T12:55:23;98497.13;;;6.68;70.11
17311;BME280;8773;43.300;0.394;2023-01-16T12:58:13;98487.09;;;6.86;70.43
17311;BME280;8773;43.300;0.394;2023-01-16T13:00:46;98487.91;;;6.95;69.43
17311;BME280;8773;43.300;0.394;2023-01-16T13:03:22;98473.28;;;6.99;69.61
17311;BME280;8773;43.300;0.394;2023-01-16T13:05:56;98477.25;;;7.03;69.80
17311;BME280;8773;43.300;0.394;2023-01-16T13:08:28;98466.66;;;6.95;69.98
17311;BME280;8773;43.300;0.394;2023-01-16T13:11:06;98468.69;;;6.85;69.49
17311;BME280;8773;43.300;0.394;2023-01-16T13:13:57;98469.25;;;6.56;70.15
17311;BME280;8773;43.300;0.394;2023-01-16T13:16:30;98465.59;;;6.57;70.72
17311;BME280;8773;43.300;0.394;2023-01-16T13:19:02;98461.06;;;6.82;69.50
17311;BME280;8773;43.300;0.394;2023-01-16T13:21:36;98446.13;;;6.73;69.28
17311;BME280;8773;43.300;0.394;2023-01-16T13:24:14;98451.78;;;6.70;69.79
17311;BME280;8773;43.300;0.394;2023-01-16T13:26:52;98452.09;;;6.83;70.08
17311;BME280;8773;43.300;0.394;2023-01-16T13:29:24;98460.41;;;6.72;70.14
17311;BME280;8773;43.300;0.394;2023-01-16T13:31:59;98470.91;;;6.65;70.57
17311;BME280;8773;43.300;0.394;2023-01-16T13:34:48;98453.94;;;6.66;70.87
17311;BME280;8773;43.300;0.394;2023-01-16T13:40:34;98468.09;;;6.58;70.74
17311;BME280;8773;43.300;0.394;2023-01-16T13:43:10;98472.91;;;6.63;70.26
17311;BME280;8773;43.300;0.394;2023-01-16T13:46:05;98457.75;;;6.72;69.29
17311;BME280;8773;43.300;0.394;2023-01-16T13:48:34;98470.13;;;6.96;69.09
17311;BME280;8773;43.300;0.394;2023-01-16T13:51:09;98463.72;;;6.82;70.10
17311;BME280;8773;43.300;0.394;2023-01-16T13:53:39;98462.56;;;6.84;69.74
17311;BME280;8773;43.300;0.394;2023-01-16T13:56:14;98471.72;;;6.74;70.51
17311;BME280;8773;43.300;0.394;2023-01-16T13:58:47;98462.75;;;6.75;70.76
17311;BME280;8773;43.300;0.394;2023-01-16T14:01:31;98466.09;;;6.52;71.16
17311;BME280;8773;43.300;0.394;2023-01-16T14:04:26;98469.59;;;6.45;72.90
17311;BME280;8773;43.300;0.394;2023-01-16T14:06:57;98447.19;;;6.47;72.12